Nearby METAR Reports

 

KFFZ - Mesa/Falcon Fld, Arizona, USA
Distance from station: ENE 9mi, 15km
Updated: Tue, 19-Feb-2019 1:54am MST
Clear
Clear
 Wind from NNW
Wind: NNW 6 mph , 9 km/h
Temperature: 39°F , 4°C
Wind Chill: 35°F , 2°C
Dew Point: 34°F , 1°C
Humidity: 81%
Barometer: 29.93 inHg , 1013.5 hPa
Clouds: Clear
Visibility: 10 miles , 16 km
2019/02/19 08:54 KFFZ 190854Z AUTO 34005KT 10SM CLR 04/01 A2993 RMK AO2 SLP128 60000 T00390006 55003
KIWA - Chandler/Mesa, Arizona, USA
Distance from station: ESE 14mi, 22km
Updated: Tue, 19-Feb-2019 2:35am MST
Clear
Clear
 Wind from SW
Wind: SW 3 mph , 6 km/h
Temperature: 36°F , 2°C
Dew Point: 34°F , 1°C
Humidity: 93%
Barometer: 29.94 inHg , 1013.9 hPa
Clouds: Clear
Visibility: 10 miles , 16 km
2019/02/19 09:35 KIWA 190935Z AUTO 23003KT 10SM CLR 02/01 A2994 RMK AO2 T00250012
 
KFLG - Flagstaff, Arizona, USA
Distance from station: N 120mi, 193km
Updated: Tue, 19-Feb-2019 1:57am MST
Few Clouds
Few Clouds
 Wind from calm
Wind: Calm
Temperature: 3°F , -16°C
Dew Point: -2°F , -19°C
Humidity: 78%
Barometer: 29.79 inHg , 1008.8 hPa
Clouds: Few Clouds
Visibility: 10 miles , 16 km
Cloud details: Few Clouds 1100 ft
2019/02/19 08:57 KFLG 190857Z AUTO 00000KT 10SM FEW011 M16/M19 A2979 RMK AO2 SLP129 I1000 I3000 T11611189 56006
KTUS - Tucson, Arizona, USA
Distance from station: SSE 102mi, 164km
Updated: Tue, 19-Feb-2019 1:53am MST
Clear
Clear
 Wind from SE
Wind: SE 6 mph , 9 km/h
Temperature: 39°F , 4°C
Wind Chill: 35°F , 2°C
Dew Point: 36°F , 2°C
Humidity: 87%
Barometer: 29.93 inHg , 1013.5 hPa
Clouds: Clear
Visibility: 10 miles , 16 km
2019/02/19 08:53 KTUS 190853Z 14005KT 10SM CLR 04/02 A2993 RMK AO2 SLP128 T00390022 58007
 
KSOW - Show Low Municip, Arizona, USA
Distance from station: ENE 122mi, 196km
Updated: Tue, 19-Feb-2019 2:35am MST
Light rain, Few clouds
Light rain, Few clouds
 Wind from S
Wind: S 7 mph , 11 km/h
Temperature: 16°F , -9°C
Wind Chill: 6°F , -14°C
Dew Point: 14°F , -10°C
Humidity: 93%
Barometer: 29.81 inHg , 1009.5 hPa
Summary: Light Rain
Clouds: Few Clouds
Visibility: 10 miles , 16 km
Cloud details: Few Clouds 6500 ft
2019/02/19 09:35 KSOW 190935Z AUTO 19006KT 10SM -RA FEW065 M09/M10 A2981 RMK AO2
KINW - Winslow, Arizona, USA
Distance from station: NNE 130mi, 209km
Updated: Tue, 19-Feb-2019 1:56am MST
Mostly Cloudy
Mostly Cloudy
 Wind from WSW
Wind: WSW 7 mph , 11 km/h
Temperature: 23°F , -5°C
Wind Chill: 15°F , -9°C
Dew Point: 18°F , -8°C
Humidity: 80%
Barometer: 29.86 inHg , 1011.2 hPa
Clouds: Mostly Cloudy
Visibility: 10 miles , 16 km
Cloud details: Few Clouds 2200 ft
Partly Cloudy 3500 ft
Mostly Cloudy 8500 ft
2019/02/19 08:56 KINW 190856Z AUTO 25006KT 10SM FEW022 SCT035 BKN085 M05/M08 A2986 RMK AO2 SLP127 T10501078 55002 $
 
KPRC - Prescott, Arizona, USA
Distance from station: NNW 92mi, 148km
Updated: Tue, 19-Feb-2019 2:31am MST
Mostly Cloudy
Mostly Cloudy
 Wind from W
Wind: W 6 mph , 9 km/h
Temperature: 23°F , -5°C
Wind Chill: 16°F , -9°C
Dew Point: 21°F , -6°C
Humidity: 93%
Barometer: 29.87 inHg , 1011.5 hPa
Clouds: Mostly Cloudy
Visibility: 10 miles , 16 km
Cloud details: Mostly Cloudy 2800 ft
2019/02/19 09:31 KPRC 190931Z AUTO 28005KT 10SM BKN028 M05/M06 A2987 RMK AO2 T10501061
KPAN - Payson, Arizona, USA
Distance from station: NNE 66mi, 106km
Updated: Tue, 19-Feb-2019 2:35am MST
Mostly Cloudy
Mostly Cloudy
 Wind from calm
Wind: Calm
Temperature: 19°F , -7°C
Dew Point: 18°F , -8°C
Humidity: 93%
Barometer: 29.84 inHg , 1010.5 hPa
Clouds: Mostly Cloudy
Visibility: 10 miles , 16 km
Cloud details: Mostly Cloudy 2600 ft
2019/02/19 09:35 KPAN 190935Z AUTO 00000KT 10SM BKN026 M07/M08 A2984 RMK AO2
 
KSEZ - Sedona, Arizona, USA
Distance from station: N 100mi, 161km
Updated: Tue, 19-Feb-2019 2:35am MST
Partly Cloudy
Partly Cloudy
 Wind from NNE
Wind: NNE 9 mph , 15 km/h
Temperature: 25°F , -4°C
Wind Chill: 16°F , -9°C
Dew Point: 21°F , -6°C
Humidity: 86%
Barometer: 29.87 inHg , 1011.5 hPa
Clouds: Partly Cloudy
Visibility: 10 miles , 16 km
Cloud details: Partly Cloudy 2800 ft
2019/02/19 09:35 KSEZ 190935Z AUTO 03008KT 10SM SCT028 M04/M06 A2987 RMK AO2
KSAD - Safford, Arizona, USA
Distance from station: ESE 150mi, 241km
Updated: Tue, 19-Feb-2019 1:51am MST
Overcast
Overcast
 Wind from W
Wind: W 3 mph , 6 km/h
Temperature: 37°F , 3°C
Dew Point: 36°F , 2°C
Humidity: 93%
Barometer: 29.89 inHg , 1012.2 hPa
Clouds: Overcast
Visibility: 10 miles , 16 km
Cloud details: Overcast 9000 ft
2019/02/19 08:51 KSAD 190851Z AUTO 28003KT 10SM OVC090 03/02 A2989 RMK AO2 SLP107 T00280017 58003